Time;durP1;ratioP1;P1;durP2;ratioP2;P2;SDS_P1;SDS_P2;PMS_P1;PMS_P2;Temp;Humidity;BMP_temperature;BMP_pressure;BME280_temperature;BME280_humidity;BME280_pressure;Samples;Min_cycle;Max_cycle;Signal;HPM_P1;HPM_P2
2023/11/02 00:00:09;;;;;;;;;25.00;25.00;;;;;7.44;100.00;98971.44;6307259;20;2834771;-47
2023/11/02 00:02:38;;;;;;;;;20.00;18.00;;;;;7.47;100.00;98968.59;6277206;20;2826311;-47
2023/11/02 00:06:09;;;;;;;;;24.50;22.00;;;;;7.28;100.00;98975.16;6276484;20;2848245;-47
2023/11/02 00:08:38;;;;;;;;;22.00;20.00;;;;;7.73;100.00;98981.34;6278020;20;3569102;-48
2023/11/02 00:11:54;;;;;;;;;27.50;21.50;;;;;7.62;100.00;98969.47;6275986;20;2840940;-47
2023/11/02 00:14:35;;;;;;;;;23.50;20.50;;;;;7.35;100.00;98965.81;6279339;20;2834674;-46
2023/11/02 00:17:35;;;;;;;;;25.50;21.00;;;;;7.34;100.00;98961.41;6279060;20;2500336;-46
2023/11/02 00:20:11;;;;;;;;;27.50;25.00;;;;;7.26;100.00;98956.53;6278348;20;2850358;-47
2023/11/02 00:22:45;;;;;;;;;24.50;23.50;;;;;7.49;100.00;98968.50;6275072;20;2841035;-47
2023/11/02 00:25:55;;;;;;;;;24.50;23.00;;;;;7.33;100.00;98963.22;6280151;20;2846163;-48
2023/11/02 00:28:25;;;;;;;;;25.50;23.50;;;;;7.29;100.00;98956.34;6280184;20;2850279;-48
2023/11/02 00:30:53;;;;;;;;;26.00;24.00;;;;;7.32;100.00;98960.63;6276193;20;2498285;-48
2023/11/02 00:33:22;;;;;;;;;25.00;23.33;;;;;7.33;100.00;98951.69;6277813;20;3570538;-48
2023/11/02 00:35:53;;;;;;;;;27.00;25.00;;;;;7.45;100.00;98961.63;6275792;20;2847188;-48
2023/11/02 00:38:26;;;;;;;;;28.00;25.50;;;;;7.58;100.00;98962.63;6276803;20;2852392;-48
2023/11/02 00:40:58;;;;;;;;;29.50;28.50;;;;;7.46;100.00;98963.38;6276901;20;2846186;-48
2023/11/02 00:43:28;;;;;;;;;24.00;23.50;;;;;7.51;100.00;98953.25;6275390;20;2846130;-48
2023/11/02 00:45:58;;;;;;;;;26.50;21.50;;;;;7.68;100.00;98949.53;6276757;20;2837749;-48
2023/11/02 00:48:33;;;;;;;;;21.50;21.50;;;;;7.65;100.00;98955.06;6282723;20;2837795;-47
2023/11/02 00:51:20;;;;;;;;;27.50;23.00;;;;;7.74;100.00;98945.63;6283399;20;2854952;-48
2023/11/02 00:53:55;;;;;;;;;22.00;20.50;;;;;7.49;100.00;98949.81;6283192;20;2834776;-47
2023/11/02 00:56:31;;;;;;;;;28.00;20.00;;;;;7.60;100.00;98946.47;6283517;20;2858609;-47
2023/11/02 00:59:00;;;;;;;;;19.50;19.00;;;;;7.47;100.00;98938.34;6283265;20;2498231;-48
2023/11/02 01:01:29;;;;;;;;;24.00;20.00;;;;;7.63;100.00;98949.81;6279657;20;2500390;-48
2023/11/02 01:04:54;;;;;;;;;25.50;19.00;;;;;8.07;100.00;98942.66;6282050;20;2838804;-47
2023/11/02 01:07:22;;;;;;;;;25.00;21.00;;;;;8.08;100.00;98934.56;6281180;20;2491932;-48
2023/11/02 01:10:00;;;;;;;;;30.33;26.33;;;;;8.05;100.00;98939.22;6284099;20;3589305;-48
2023/11/02 01:12:36;;;;;;;;;33.50;27.00;;;;;8.17;100.00;98932.25;6281365;20;2848276;-48
2023/11/02 01:15:44;;;;;;;;;20.00;18.50;;;;;8.26;100.00;98926.31;6283915;20;2828442;-49
2023/11/02 01:18:15;;;;;;;;;18.00;17.67;;;;;8.07;100.00;98922.13;6281255;20;3562891;-48
2023/11/02 01:21:04;;;;;;;;;19.50;19.00;;;;;7.77;100.00;98921.41;6280456;20;2491966;-47
2023/11/02 01:23:36;;;;;;;;;20.33;17.67;;;;;7.96;100.00;98927.31;6281799;20;3563795;-48
2023/11/02 01:26:05;;;;;;;;;19.00;17.00;;;;;7.95;100.00;98927.41;6283721;20;3563820;-48
2023/11/02 01:28:52;;;;;;;;;21.00;20.00;;;;;8.06;100.00;98931.13;6313378;20;2496134;-48
2023/11/02 01:31:22;;;;;;;;;25.50;23.00;;;;;8.02;100.00;98932.25;6278979;20;2500357;-48
2023/11/02 01:34:00;;;;;;;;;23.33;19.00;;;;;8.51;100.00;98929.16;6281525;20;3574190;-48
2023/11/02 01:36:33;;;;;;;;;19.50;19.50;;;;;7.90;100.00;98920.53;6285012;20;2830503;-48
2023/11/02 01:39:15;;;;;;;;;13.50;12.50;;;;;7.72;100.00;98926.19;6284832;20;2807560;-47
2023/11/02 01:42:08;;;;;;;;;19.67;18.00;;;;;7.72;100.00;98926.19;6283664;20;3561897;-47
2023/11/02 01:45:06;;;;;;;;;18.00;13.33;;;;;7.65;100.00;98921.19;6314395;20;3545135;-48
2023/11/02 01:48:06;;;;;;;;;18.00;18.00;;;;;7.50;100.00;98905.25;6283488;20;2823264;-48
2023/11/02 01:51:06;;;;;;;;;14.00;14.00;;;;;7.91;100.00;98916.91;6281891;20;2793122;-48
2023/11/02 01:54:16;;;;;;;;;18.00;15.00;;;;;7.91;100.00;98906.22;6308612;20;3548344;-48
2023/11/02 01:57:00;;;;;;;;;18.00;14.00;;;;;7.56;100.00;98895.06;6279680;20;2809684;-48
2023/11/02 01:59:48;;;;;;;;;26.00;17.50;;;;;7.91;100.00;98897.34;6279999;20;3460674;-37
2023/11/02 02:03:19;;;;;;;;;15.33;15.33;;;;;7.75;100.00;98899.28;6309801;20;3544033;-39
2023/11/02 02:06:19;;;;;;;;;15.33;15.33;;;;;8.18;100.00;98907.22;6280200;20;3530487;-39
2023/11/02 02:09:28;;;;;;;;;17.67;15.67;;;;;7.76;100.00;98909.00;6311645;20;3565909;-39
2023/11/02 02:12:20;;;;;;;;;19.00;16.50;;;;;7.69;100.00;98905.84;6279631;20;2837829;-38
2023/11/02 02:15:55;;;;;;;;;16.33;15.00;;;;;7.83;100.00;98907.66;6279960;20;3554418;-38
2023/11/02 02:18:47;;;;;;;;;17.00;15.00;;;;;7.70;100.00;98902.22;6308252;20;2491952;-38
2023/11/02 02:21:34;;;;;;;;;18.67;15.67;;;;;7.61;100.00;98901.00;6278330;20;3549278;-39
2023/11/02 02:25:03;;;;;;;;;18.00;15.00;;;;;7.56;100.00;98892.41;6311329;20;3552295;-40
2023/11/02 02:27:55;;;;;;;;;18.00;14.67;;;;;7.15;100.00;98882.44;6280188;20;3539854;-39
2023/11/02 02:30:33;;;;;;;;;17.33;13.00;;;;;7.61;100.00;98881.41;6312457;20;3553499;-38
2023/11/02 02:34:04;;;;;;;;;17.33;16.00;;;;;7.92;100.00;98872.31;6279679;20;3548166;-39
2023/11/02 02:36:45;;;;;;;;;16.00;14.67;;;;;8.06;100.00;98880.34;6307864;20;2806536;-38
2023/11/02 02:39:22;;;;;;;;;14.67;14.67;;;;;8.32;100.00;98869.75;6313513;20;3530483;-38
2023/11/02 02:42:01;;;;;;;;;16.67;13.67;;;;;7.79;100.00;98879.41;6310929;20;3536824;-38
2023/11/02 02:44:31;;;;;;;;;17.00;14.50;;;;;7.57;100.00;98874.56;6311866;20;2805522;-40
2023/11/02 02:47:03;;;;;;;;;13.67;13.67;;;;;7.52;100.00;98877.50;6279411;20;3535675;-41
2023/11/02 02:49:40;;;;;;;;;16.50;16.00;;;;;7.57;100.00;98871.88;6315810;20;2819030;-40
2023/11/02 02:52:13;;;;;;;;;18.00;13.00;;;;;7.61;100.00;98868.94;6279100;20;2818159;-39
2023/11/02 02:54:50;;;;;;;;;18.67;16.00;;;;;7.69;100.00;98869.31;6277197;20;3557598;-38
2023/11/02 02:57:19;;;;;;;;;16.00;11.50;;;;;7.86;100.00;98864.69;6315580;20;2803400;-37
2023/11/02 02:59:53;;;;;;;;;16.00;13.50;;;;;7.87;100.00;98866.41;6281380;20;2808636;-38
2023/11/02 03:02:29;;;;;;;;;15.50;12.50;;;;;7.91;100.00;98859.91;6278732;20;2796141;-47
2023/11/02 03:04:59;;;;;;;;;19.33;12.67;;;;;7.60;100.00;98858.34;6279130;20;3554677;-48
2023/11/02 03:07:32;;;;;;;;;18.00;14.00;;;;;7.52;100.00;98861.47;6312714;20;3550337;-48
2023/11/02 03:10:06;;;;;;;;;24.00;16.00;;;;;7.37;100.00;98862.41;6311880;20;2860715;-48
2023/11/02 03:12:41;;;;;;;;;16.00;12.00;;;;;7.17;100.00;98855.66;6275179;20;2798296;-48
2023/11/02 03:15:12;;;;;;;;;18.50;16.00;;;;;7.07;100.00;98860.69;6311281;20;2813863;-38
2023/11/02 03:17:59;;;;;;;;;14.33;13.00;;;;;7.10;100.00;98860.50;6280567;20;3540352;-38
2023/11/02 03:20:27;;;;;;;;;17.00;14.50;;;;;7.03;100.00;98864.50;6278821;20;2811707;-40
2023/11/02 03:23:12;;;;;;;;;18.00;15.33;;;;;7.10;100.00;98859.63;6280847;20;3543993;-39
2023/11/02 03:26:07;;;;;;;;;19.50;18.00;;;;;6.91;100.00;98863.41;6317252;20;2828397;-38
2023/11/02 03:29:34;;;;;;;;;13.50;11.00;;;;;6.96;100.00;98855.16;6278197;20;2789871;-38
2023/11/02 03:32:17;;;;;;;;;17.50;17.00;;;;;6.79;100.00;98853.47;6281398;20;2822246;-39
2023/11/02 03:35:10;;;;;;;;;17.50;16.00;;;;;7.17;100.00;98843.16;6278924;20;2816962;-38
2023/11/02 03:38:20;;;;;;;;;15.40;14.60;;;;;6.95;100.00;98834.72;6302402;20;2815911;-38
2023/11/02 03:41:20;;;;;;;;;18.67;16.00;;;;;7.14;100.00;98834.50;6272719;20;3553526;-38
2023/11/02 03:44:30;;;;;;;;;17.00;16.00;;;;;7.07;100.00;98831.31;6314001;20;2828412;-39
2023/11/02 03:47:28;;;;;;;;;17.00;15.00;;;;;6.96;100.00;98831.97;6280993;20;2815981;-39
2023/11/02 03:50:10;;;;;;;;;31.00;25.00;;;;;7.23;100.00;98828.56;6278353;20;2851549;-39
2023/11/02 03:53:23;;;;;;;;;22.00;20.50;;;;;7.24;100.00;98827.59;6275126;20;2498306;-39
2023/11/02 03:56:21;;;;;;;;;18.50;16.50;;;;;7.18;100.00;98828.84;6274423;20;2500240;-48
2023/11/02 03:59:25;;;;;;;;;17.50;17.00;;;;;7.19;100.00;98827.91;6279746;20;2500422;-48
2023/11/02 04:02:09;;;;;;;;;20.00;18.00;;;;;7.22;100.00;98829.53;6280985;20;2823201;-49
2023/11/02 04:04:47;;;;;;;;;19.50;17.00;;;;;6.49;100.00;98827.66;6277934;20;2824344;-49
2023/11/02 04:07:22;;;;;;;;;15.00;15.00;;;;;6.52;100.00;98826.63;6276969;20;3534630;-48
2023/11/02 04:10:11;;;;;;;;;22.33;18.33;;;;;6.23;100.00;98831.84;6309396;20;3556722;-48
2023/11/02 04:13:13;;;;;;;;;28.50;22.50;;;;;6.10;100.00;98822.84;6274347;20;2496122;-48
2023/11/02 04:15:43;;;;;;;;;40.50;36.50;;;;;6.24;100.00;98814.91;6272421;20;2861204;-48
2023/11/02 04:18:13;;;;;;;;;44.33;39.00;;;;;6.46;100.00;98824.34;6277474;20;2847118;-49
2023/11/02 04:20:43;;;;;;;;;38.00;28.67;;;;;6.88;100.00;98822.72;6307226;20;2871311;-38
2023/11/02 04:23:14;;;;;;;;;58.67;45.33;;;;;7.30;100.00;98818.38;6307735;20;2869179;-38
2023/11/02 04:25:42;;;;;;;;;32.00;29.00;;;;;7.35;100.00;98816.28;6307498;20;2500303;-41
2023/11/02 04:28:11;;;;;;;;;27.00;26.00;;;;;7.10;100.00;98823.13;6310594;20;2852367;-41
2023/11/02 04:30:40;;;;;;;;;18.00;16.00;;;;;6.83;100.00;98820.34;6279848;20;3554455;-39
2023/11/02 04:33:09;;;;;;;;;16.67;15.67;;;;;6.65;100.00;98816.94;6277835;20;3551338;-48
2023/11/02 04:35:37;;;;;;;;;17.50;16.50;;;;;6.22;100.00;98819.47;6308268;20;2825308;-40
2023/11/02 04:38:08;;;;;;;;;17.00;15.67;;;;;5.92;100.00;98820.25;6278804;20;3544020;-38
2023/11/02 04:40:41;;;;;;;;;21.00;17.00;;;;;6.13;100.00;98814.66;6308604;20;2821554;-38
2023/11/02 04:43:11;;;;;;;;;66.33;53.33;;;;;6.21;100.00;98806.22;6279779;20;2875297;-37
2023/11/02 04:45:43;;;;;;;;;111.00;90.25;;;;;6.33;100.00;98801.03;6307000;20;4464815;-37
2023/11/02 04:48:14;;;;;;;;;84.00;67.33;;;;;6.50;100.00;98800.06;6275618;20;3650263;-38
2023/11/02 04:50:45;;;;;;;;;71.00;53.33;;;;;6.14;100.00;98790.59;6274683;20;3633700;-38
2023/11/02 04:53:14;;;;;;;;;69.67;52.33;;;;;5.93;100.00;98787.38;6307470;20;3629413;-40
2023/11/02 04:55:43;;;;;;;;;36.33;31.00;;;;;6.09;100.00;98791.81;6310595;20;3605543;-38
2023/11/02 04:58:11;;;;;;;;;14.00;14.00;;;;;6.27;100.00;98790.75;6281370;20;2810693;-39
2023/11/02 05:00:39;;;;;;;;;25.00;24.00;;;;;6.80;100.00;98792.03;6275931;20;2500344;-38
2023/11/02 05:03:08;;;;;;;;;23.00;21.50;;;;;6.58;100.00;98792.47;6277107;20;2835731;-40
2023/11/02 05:05:37;;;;;;;;;25.00;16.67;;;;;6.11;100.00;98789.94;6278088;20;3573234;-39
2023/11/02 05:08:08;;;;;;;;;17.00;17.00;;;;;5.94;100.00;98799.72;6309192;20;2821156;-38
2023/11/02 05:10:37;;;;;;;;;20.00;18.33;;;;;6.03;100.00;98792.16;6276902;20;3558745;-39
2023/11/02 05:13:06;;;;;;;;;26.67;17.33;;;;;6.40;100.00;98784.69;6279900;20;3583652;-39
2023/11/02 05:15:36;;;;;;;;;14.20;12.80;;;;;6.03;100.00;98793.03;6332858;20;2807550;-39
2023/11/02 05:18:21;;;;;;;;;23.00;17.00;;;;;6.26;100.00;98786.34;6280985;20;2831691;-48
2023/11/02 05:20:57;;;;;;;;;20.50;17.00;;;;;6.69;100.00;98802.50;6279621;20;2819084;-48
2023/11/02 05:23:26;;;;;;;;;18.00;18.00;;;;;6.54;100.00;98798.06;6276844;20;2492019;-38
2023/11/02 05:25:54;;;;;;;;;21.67;20.00;;;;;5.99;100.00;98785.28;6278500;20;3564835;-39
2023/11/02 05:28:22;;;;;;;;;21.00;18.00;;;;;6.35;100.00;98787.63;6276018;20;2835664;-38
2023/11/02 05:30:50;;;;;;;;;27.00;20.50;;;;;6.33;100.00;98779.72;6278383;20;2841983;-39
2023/11/02 05:33:18;;;;;;;;;28.00;20.50;;;;;6.10;100.00;98772.19;6278280;20;2846283;-38
2023/11/02 05:35:46;;;;;;;;;28.00;22.50;;;;;6.43;100.00;98773.84;6275109;20;2498300;-38
2023/11/02 05:38:16;;;;;;;;;25.00;19.50;;;;;6.54;100.00;98777.59;6283125;20;2838850;-38
2023/11/02 05:40:45;;;;;;;;;23.50;18.50;;;;;6.84;100.00;98782.00;6281070;20;2498201;-38
2023/11/02 05:43:14;;;;;;;;;26.00;19.00;;;;;6.68;100.00;98784.75;6298305;20;3572150;-39
2023/11/02 05:45:43;;;;;;;;;29.33;23.33;;;;;6.97;100.00;98784.78;6280198;20;3583568;-38
2023/11/02 05:48:11;;;;;;;;;26.00;23.00;;;;;6.79;100.00;98787.66;6280617;20;2500267;-39
2023/11/02 05:50:39;;;;;;;;;28.00;18.00;;;;;5.90;100.00;98782.19;6276277;20;2491997;-38
2023/11/02 05:53:07;;;;;;;;;21.50;20.00;;;;;6.16;100.00;98790.50;6281326;20;2491962;-38
2023/11/02 05:55:35;;;;;;;;;21.00;18.00;;;;;6.24;100.00;98795.38;6280355;20;2500274;-38
2023/11/02 05:58:03;;;;;;;;;23.00;19.50;;;;;6.17;100.00;98786.03;6286667;20;2826329;-38
2023/11/02 06:00:32;;;;;;;;;28.00;25.00;;;;;6.14;100.00;98795.06;6281377;20;2847131;-39
2023/11/02 06:03:00;;;;;;;;;28.00;28.00;;;;;6.66;100.00;98789.34;6281680;20;2844097;-38
2023/11/02 06:05:30;;;;;;;;;31.50;27.00;;;;;6.24;100.00;98785.59;6283431;20;2845361;-39
2023/11/02 06:07:59;;;;;;;;;30.33;28.00;;;;;6.61;100.00;98788.75;6282730;20;2850348;-39
2023/11/02 06:10:28;;;;;;;;;33.00;28.00;;;;;6.15;100.00;98791.44;6313924;20;2855517;-49
2023/11/02 06:12:57;;;;;;;;;28.00;22.50;;;;;6.76;100.00;98802.97;6281498;20;2841933;-50
2023/11/02 06:15:26;;;;;;;;;29.50;26.50;;;;;6.65;100.00;98802.75;6283568;20;2844981;-51
2023/11/02 06:17:56;;;;;;;;;41.00;33.33;;;;;5.97;100.00;98801.34;6281172;20;3624343;-50
2023/11/02 06:20:25;;;;;;;;;35.00;33.00;;;;;6.37;100.00;98786.59;6311654;20;2850307;-49
2023/11/02 06:22:54;;;;;;;;;36.67;30.00;;;;;6.13;100.00;98778.22;6282551;20;2871235;-48
2023/11/02 06:25:24;;;;;;;;;29.00;27.00;;;;;6.33;100.00;98779.72;6311280;20;2852408;-52
2023/11/02 06:27:53;;;;;;;;;16.50;14.00;;;;;6.19;100.00;98790.34;6282418;20;2800254;-49
2023/11/02 06:30:21;;;;;;;;;26.67;22.00;;;;;5.99;100.00;98774.63;6282123;20;3587755;-48
2023/11/02 06:32:51;;;;;;;;;13.00;9.20;;;;;6.46;100.00;98771.84;6308708;20;2787918;-50
2023/11/02 06:35:20;;;;;;;;;31.00;24.00;;;;;7.11;100.00;98776.81;6281915;20;2864900;-50
2023/11/02 06:38:00;;;;;;;;;24.50;23.50;;;;;7.11;100.00;98770.59;6280161;20;2838874;-48
2023/11/02 06:40:30;;;;;;;;;29.00;28.50;;;;;9.00;100.00;98761.69;6281257;20;2850433;-48
2023/11/02 06:42:59;;;;;;;;;26.00;24.67;;;;;10.44;100.00;98743.16;6285194;20;3581540;-50
2023/11/02 06:45:28;;;;;;;;;25.00;20.00;;;;;12.29;91.75;98742.75;6280079;20;2835797;-49
2023/11/02 06:47:57;;;;;;;;;25.50;24.00;;;;;15.85;67.77;98752.78;6283256;20;2841920;-45
2023/11/02 06:50:25;;;;;;;;;20.00;19.00;;;;;17.38;58.89;98763.47;6280065;20;2500367;-46
2023/11/02 06:52:54;;;;;;;;;18.50;16.00;;;;;12.70;73.60;98741.97;6283075;20;2827368;-48
2023/11/02 06:55:23;;;;;;;;;16.00;16.00;;;;;13.18;72.31;98748.63;6282078;20;2818037;-47
2023/11/02 06:57:52;;;;;;;;;21.00;18.00;;;;;13.71;74.87;98751.13;6278771;20;3579433;-47
2023/11/02 07:00:22;;;;;;;;;18.00;16.00;;;;;14.22;70.39;98747.41;6279152;20;2498244;-49
2023/11/02 07:02:52;;;;;;;;;19.00;16.00;;;;;15.69;65.40;98748.00;6280380;20;2824348;-50
2023/11/02 07:05:20;;;;;;;;;16.67;16.33;;;;;15.79;64.88;98755.06;6284516;20;2835737;-50
2023/11/02 07:07:49;;;;;;;;;17.00;14.67;;;;;17.10;59.13;98755.50;6311111;20;3543095;-47
2023/11/02 07:10:19;;;;;;;;;20.33;18.00;;;;;17.92;57.30;98758.69;6314997;20;3570245;-49
2023/11/02 07:12:48;;;;;;;;;17.00;15.50;;;;;16.73;60.81;98753.84;6279286;20;2827388;-48
2023/11/02 07:15:16;;;;;;;;;15.00;14.00;;;;;16.26;60.51;98745.97;6279642;20;2491904;-49
2023/11/02 07:17:44;;;;;;;;;23.00;19.00;;;;;10.60;90.28;98729.41;6284775;20;2491955;-46
2023/11/02 07:20:12;;;;;;;;;15.00;9.50;;;;;10.38;98.95;98745.47;6285549;20;2784712;-50
2023/11/02 07:22:40;;;;;;;;;19.00;17.50;;;;;10.48;100.00;98741.13;6279669;20;2829494;-51
2023/11/02 07:25:10;;;;;;;;;21.50;19.00;;;;;9.25;100.00;98738.56;6281777;20;2846155;-47
2023/11/02 07:27:39;;;;;;;;;23.00;21.50;;;;;10.31;100.00;98740.56;6280740;20;2848219;-47
2023/11/02 07:30:10;;;;;;;;;19.00;18.00;;;;;10.24;100.00;98733.03;6281491;20;2829550;-47
2023/11/02 07:32:40;;;;;;;;;22.00;21.00;;;;;10.32;100.00;98730.66;6279227;20;3569066;-46
2023/11/02 07:35:10;;;;;;;;;23.00;20.50;;;;;10.59;100.00;98727.72;6279298;20;2843056;-50
2023/11/02 07:37:38;;;;;;;;;21.50;21.50;;;;;10.06;100.00;98721.91;6281119;20;2840993;-48
2023/11/02 07:40:08;;;;;;;;;19.00;19.00;;;;;9.73;100.00;98726.09;6280570;20;2839884;-47
2023/11/02 07:42:37;;;;;;;;;19.00;19.00;;;;;10.04;100.00;98723.84;6278213;20;2827441;-54
2023/11/02 07:45:06;;;;;;;;;20.00;19.00;;;;;9.87;100.00;98723.28;6276482;20;2500274;-52
2023/11/02 07:47:35;;;;;;;;;16.50;15.00;;;;;10.00;100.00;98720.50;6279413;20;2821117;-49
2023/11/02 07:50:04;;;;;;;;;18.50;17.50;;;;;10.51;100.00;98724.78;6277553;20;2841966;-50
2023/11/02 07:52:33;;;;;;;;;24.67;17.33;;;;;11.43;100.00;98722.91;6281491;20;2837747;-48
2023/11/02 07:55:03;;;;;;;;;18.00;17.00;;;;;11.28;100.00;98729.50;6310359;20;3564867;-48
2023/11/02 07:57:31;;;;;;;;;15.50;15.00;;;;;11.00;100.00;98720.94;6279144;20;2795068;-48
2023/11/02 08:00:00;;;;;;;;;15.67;15.33;;;;;11.58;99.92;98726.16;6281765;20;3551362;-48
2023/11/02 08:02:29;;;;;;;;;18.00;16.00;;;;;11.46;97.84;98733.41;6311887;20;3562887;-46
2023/11/02 08:04:57;;;;;;;;;15.00;13.00;;;;;12.40;95.52;98731.97;6285017;20;2796141;-50
2023/11/02 08:07:26;;;;;;;;;14.00;12.00;;;;;11.35;97.77;98725.38;6281605;20;3515946;-46
2023/11/02 08:09:54;;;;;;;;;16.67;12.67;;;;;11.95;97.10;98724.03;6281339;20;3537760;-47
2023/11/02 08:12:22;;;;;;;;;18.00;13.50;;;;;12.39;94.67;98718.63;6311457;20;2805625;-48
2023/11/02 08:14:50;;;;;;;;;14.50;13.00;;;;;12.05;94.54;98719.59;6282823;20;2812912;-47
2023/11/02 08:17:21;;;;;;;;;18.00;17.00;;;;;11.55;96.21;98715.66;6279576;20;2483653;-48
2023/11/02 08:19:49;;;;;;;;;16.00;16.00;;;;;12.16;95.00;98718.72;6278130;20;2483667;-47
2023/11/02 08:22:17;;;;;;;;;15.50;14.50;;;;;12.18;94.69;98707.81;6277346;20;2498192;-48
2023/11/02 08:24:45;;;;;;;;;16.00;16.00;;;;;12.71;92.60;98710.47;6281084;20;3557657;-47
2023/11/02 08:27:15;;;;;;;;;17.50;13.50;;;;;12.74;90.36;98707.53;6315561;20;2807607;-49
2023/11/02 08:29:45;;;;;;;;;13.67;13.00;;;;;11.73;94.90;98697.19;6281602;20;3520157;-48
2023/11/02 08:32:14;;;;;;;;;14.33;13.00;;;;;11.27;96.45;98700.91;6307874;20;3522162;-48
2023/11/02 08:34:43;;;;;;;;;13.00;9.50;;;;;12.31;95.76;98695.03;6313205;20;2775355;-46
2023/11/02 08:37:12;;;;;;;;;15.00;14.67;;;;;12.82;92.52;98685.31;6280741;20;3506545;-50
2023/11/02 08:39:41;;;;;;;;;13.67;13.67;;;;;12.42;92.29;98678.81;6312933;20;3519056;-50
2023/11/02 08:42:09;;;;;;;;;13.00;13.00;;;;;12.01;94.00;98672.44;6314944;20;2807584;-49
2023/11/02 08:44:41;;;;;;;;;14.00;12.00;;;;;12.49;93.06;98669.25;6285577;20;2793122;-50
2023/11/02 08:47:13;;;;;;;;;12.00;10.67;;;;;12.50;92.96;98676.31;6280728;20;3522246;-51
2023/11/02 08:49:43;;;;;;;;;16.33;16.33;;;;;11.73;93.55;98675.69;6312809;20;3555630;-48
2023/11/02 08:52:12;;;;;;;;;14.00;12.00;;;;;12.37;93.00;98675.66;6280879;20;3516335;-48
2023/11/02 08:54:40;;;;;;;;;12.00;11.00;;;;;12.80;91.60;98669.31;6316169;20;2788873;-48
2023/11/02 08:57:09;;;;;;;;;13.67;11.67;;;;;13.07;88.83;98665.16;6281667;20;3524338;-47
2023/11/02 08:59:37;;;;;;;;;14.67;13.33;;;;;12.84;89.38;98657.25;6310255;20;3540904;-46
2023/11/02 09:02:06;;;;;;;;;10.50;10.50;;;;;12.55;90.80;98651.72;6281794;20;2794233;-48
2023/11/02 09:04:33;;;;;;;;;11.00;11.00;;;;;13.60;87.47;98656.84;6283882;20;2790912;-47
2023/11/02 09:07:02;;;;;;;;;13.67;13.00;;;;;12.37;91.20;98656.81;6281519;20;3524308;-47
2023/11/02 09:09:30;;;;;;;;;9.50;8.50;;;;;12.84;90.99;98651.03;6317381;20;2759067;-47
2023/11/02 09:11:59;;;;;;;;;13.33;11.00;;;;;13.31;86.76;98644.13;6285690;20;3522115;-47
2023/11/02 09:14:28;;;;;;;;;10.67;8.33;;;;;13.24;87.45;98642.94;6314758;20;2771105;-49
2023/11/02 09:16:57;;;;;;;;;12.00;11.00;;;;;13.82;85.70;98643.13;6316871;20;3524245;-47
2023/11/02 09:19:25;;;;;;;;;11.00;9.00;;;;;13.72;83.97;98636.84;6316712;20;2776370;-49
2023/11/02 09:21:54;;;;;;;;;11.50;10.50;;;;;13.86;84.41;98643.69;6290377;20;2792142;-50
2023/11/02 09:24:22;;;;;;;;;10.00;10.00;;;;;13.91;83.98;98630.63;6291386;20;2788858;-49
2023/11/02 09:26:51;;;;;;;;;13.00;13.00;;;;;14.25;83.09;98636.44;6286210;20;2794182;-47
2023/11/02 09:29:19;;;;;;;;;11.33;10.00;;;;;14.24;81.26;98629.34;6317076;20;3510663;-49
2023/11/02 09:31:47;;;;;;;;;10.00;10.00;;;;;13.93;82.73;98627.75;6320084;20;2789979;-47
2023/11/02 09:34:30;;;;;;;;;11.50;9.00;;;;;14.43;82.26;98630.31;6284829;20;2774246;-49
2023/11/02 09:37:01;;;;;;;;;12.00;10.00;;;;;14.27;81.51;98626.34;6284280;20;2780518;-54
2023/11/02 09:39:30;;;;;;;;;10.00;10.00;;;;;14.07;81.63;98613.00;6318296;20;2792013;-48
2023/11/02 09:41:58;;;;;;;;;13.00;10.00;;;;;14.28;81.42;98617.22;6289128;20;2798241;-49
2023/11/02 09:44:29;;;;;;;;;11.00;10.00;;;;;14.51;80.22;98611.53;6308110;20;2783675;-47
2023/11/02 09:46:56;;;;;;;;;11.50;11.50;;;;;14.86;79.76;98612.72;6285505;20;2788818;-48
2023/11/02 09:49:25;;;;;;;;;13.00;13.00;;;;;14.83;79.37;98604.91;6286159;20;3534771;-49
2023/11/02 09:51:55;;;;;;;;;10.00;10.00;;;;;14.82;79.13;98608.59;6287384;20;2794180;-49
2023/11/02 09:54:23;;;;;;;;;7.50;7.50;;;;;15.36;77.10;98596.09;6283177;20;2741973;-51
2023/11/02 09:57:10;;;;;;;;;12.00;10.67;;;;;14.85;79.14;98589.38;6281628;20;2791001;-49
2023/11/02 09:59:46;;;;;;;;;9.67;8.00;;;;;15.14;77.54;98591.97;6311494;20;2761765;-47
2023/11/02 10:02:19;;;;;;;;;13.00;11.00;;;;;14.75;79.12;98585.88;6315710;20;3510684;-48
2023/11/02 10:04:49;;;;;;;;;10.80;10.80;;;;;15.12;77.69;98577.75;6341275;20;2791982;-51
2023/11/02 10:07:18;;;;;;;;;14.33;11.00;;;;;15.04;78.17;98574.94;6283705;20;3510714;-50
2023/11/02 10:09:49;;;;;;;;;11.67;11.67;;;;;15.26;77.40;98570.97;6315631;20;3524237;-48
2023/11/02 10:12:19;;;;;;;;;12.33;12.00;;;;;15.09;78.55;98568.09;6314442;20;3512779;-51
2023/11/02 10:14:47;;;;;;;;;15.00;12.00;;;;;15.06;78.91;98560.28;6315624;20;2487807;-46
2023/11/02 10:17:17;;;;;;;;;13.00;11.67;;;;;15.68;77.91;98544.19;6283300;20;3534780;-48
2023/11/02 10:19:45;;;;;;;;;12.00;11.33;;;;;15.49;77.29;98544.34;6309854;20;3529428;-52
2023/11/02 10:22:16;;;;;;;;;13.00;12.33;;;;;15.31;78.10;98533.50;6280109;20;3522302;-48
2023/11/02 10:24:46;;;;;;;;;13.50;11.50;;;;;15.02;78.70;98529.13;6317983;20;2492014;-48
2023/11/02 10:27:16;;;;;;;;;11.00;11.00;;;;;15.17;78.51;98521.38;6283908;20;3518095;-50
2023/11/02 10:29:45;;;;;;;;;10.33;10.00;;;;;15.56;77.05;98521.06;6313369;20;3513868;-48
2023/11/02 10:32:13;;;;;;;;;13.00;11.00;;;;;15.45;78.04;98511.31;6317891;20;2786813;-49
2023/11/02 10:34:44;;;;;;;;;11.00;11.00;;;;;15.76;75.18;98516.38;6288658;20;2788933;-47
2023/11/02 10:37:12;;;;;;;;;12.00;12.00;;;;;15.62;76.70;98503.38;6283877;20;3524251;-46
2023/11/02 10:39:45;;;;;;;;;12.33;12.33;;;;;15.34;77.45;98506.16;6282190;20;3515082;-49
2023/11/02 10:42:15;;;;;;;;;16.00;12.00;;;;;15.21;77.69;98500.25;6319442;20;2802499;-51
2023/11/02 10:44:44;;;;;;;;;11.67;11.67;;;;;15.79;76.43;98499.81;6284903;20;2794062;-48
2023/11/02 10:47:15;;;;;;;;;13.67;12.33;;;;;16.11;74.32;98504.63;6312107;20;3533621;-49
2023/11/02 10:49:45;;;;;;;;;14.67;12.67;;;;;15.68;75.35;98502.75;6313518;20;3508624;-49
2023/11/02 10:52:38;;;;;;;;;13.00;12.00;;;;;15.94;74.06;98509.06;6320371;20;2794079;-47
2023/11/02 10:55:37;;;;;;;;;16.00;13.00;;;;;16.02;74.41;98501.00;6282621;20;2819034;-46
2023/11/02 10:58:08;;;;;;;;;20.50;18.00;;;;;16.72;74.34;98491.94;6280467;20;2835707;-49
2023/11/02 11:00:38;;;;;;;;;11.33;10.67;;;;;16.36;72.00;98494.81;6278660;20;3516054;-49
2023/11/02 11:03:09;;;;;;;;;12.00;11.00;;;;;16.42;72.53;98496.00;6315923;20;2793161;-54
2023/11/02 11:05:39;;;;;;;;;10.33;10.33;;;;;16.42;72.37;98486.03;6282179;20;3509708;-55
2023/11/02 11:08:10;;;;;;;;;9.80;9.80;;;;;16.30;71.91;98491.88;6339359;20;2783900;-53
2023/11/02 11:10:40;;;;;;;;;22.00;22.00;;;;;16.96;70.94;98480.38;6283927;20;3576298;-52
2023/11/02 11:13:10;;;;;;;;;13.00;11.00;;;;;16.96;70.72;98482.22;6280138;20;2794110;-51
2023/11/02 11:15:41;;;;;;;;;12.60;11.40;;;;;16.31;72.26;98483.59;6337824;20;2796234;-52
2023/11/02 11:18:11;;;;;;;;;10.50;10.50;;;;;16.74;71.89;98472.78;6285130;20;2792205;-47
2023/11/02 11:20:43;;;;;;;;;9.00;9.00;;;;;16.81;69.26;98463.03;6282973;20;2754530;-51
2023/11/02 11:23:14;;;;;;;;;11.00;10.00;;;;;17.28;68.25;98457.88;6281895;20;3522240;-47
2023/11/02 11:26:00;;;;;;;;;8.33;8.33;;;;;16.74;70.19;98457.38;6310606;20;2754446;-49
2023/11/02 11:28:35;;;;;;;;;12.67;11.00;;;;;17.36;68.41;98451.63;6313300;20;3514870;-47
2023/11/02 11:31:05;;;;;;;;;26.33;25.00;;;;;17.10;69.69;98447.16;6316108;20;3593009;-50
2023/11/02 11:33:44;;;;;;;;;12.00;10.40;;;;;16.90;68.86;98445.75;6308342;20;2793316;-46
2023/11/02 11:36:23;;;;;;;;;8.33;8.33;;;;;17.09;69.08;98442.78;6282257;20;2750268;-52
2023/11/02 11:38:57;;;;;;;;;10.80;9.40;;;;;16.83;69.32;98434.75;6337522;20;2786779;-47